sensor_id;sensor_type;location;lat;lon;timestamp;temperature;humidity
8939;DHT22;4504;48.810;9.172;2022-07-01T00:00:53;18.70;99.90
8939;DHT22;4504;48.810;9.172;2022-07-01T00:03:23;18.70;99.90
8939;DHT22;4504;48.810;9.172;2022-07-01T00:05:50;18.70;99.90
8939;DHT22;4504;48.810;9.172;2022-07-01T00:08:17;18.70;99.90
8939;DHT22;4504;48.810;9.172;2022-07-01T00:10:44;18.70;99.90
8939;DHT22;4504;48.810;9.172;2022-07-01T00:13:11;18.70;99.90
8939;DHT22;4504;48.810;9.172;2022-07-01T00:15:38;18.60;99.90
8939;DHT22;4504;48.810;9.172;2022-07-01T00:18:05;18.60;99.90
8939;DHT22;4504;48.810;9.172;2022-07-01T00:20:33;18.70;99.90
8939;DHT22;4504;48.810;9.172;2022-07-01T00:23:00;18.60;99.90
8939;DHT22;4504;48.810;9.172;2022-07-01T00:25:27;18.60;99.90
8939;DHT22;4504;48.810;9.172;2022-07-01T00:27:54;18.60;99.90
8939;DHT22;4504;48.810;9.172;2022-07-01T00:30:21;18.60;99.90
8939;DHT22;4504;48.810;9.172;2022-07-01T00:32:49;18.60;99.90
8939;DHT22;4504;48.810;9.172;2022-07-01T00:35:18;18.60;99.90
8939;DHT22;4504;48.810;9.172;2022-07-01T00:37:47;18.50;99.90
8939;DHT22;4504;48.810;9.172;2022-07-01T00:40:13;18.50;99.90
8939;DHT22;4504;48.810;9.172;2022-07-01T00:42:41;18.50;99.90
8939;DHT22;4504;48.810;9.172;2022-07-01T00:45:10;18.50;99.90
8939;DHT22;4504;48.810;9.172;2022-07-01T00:47:38;18.40;99.90
8939;DHT22;4504;48.810;9.172;2022-07-01T00:50:07;18.50;99.90
8939;DHT22;4504;48.810;9.172;2022-07-01T00:52:34;18.40;99.90
8939;DHT22;4504;48.810;9.172;2022-07-01T00:55:05;18.40;99.90
8939;DHT22;4504;48.810;9.172;2022-07-01T00:57:34;18.30;99.90
8939;DHT22;4504;48.810;9.172;2022-07-01T01:00:04;18.20;99.90
8939;DHT22;4504;48.810;9.172;2022-07-01T01:02:31;18.20;99.90
8939;DHT22;4504;48.810;9.172;2022-07-01T01:04:58;18.20;99.90
8939;DHT22;4504;48.810;9.172;2022-07-01T01:07:25;18.10;99.90
8939;DHT22;4504;48.810;9.172;2022-07-01T01:09:53;18.10;99.90
8939;DHT22;4504;48.810;9.172;2022-07-01T01:12:21;18.20;99.90
8939;DHT22;4504;48.810;9.172;2022-07-01T01:14:50;18.10;99.90
8939;DHT22;4504;48.810;9.172;2022-07-01T01:17:17;18.10;99.90
8939;DHT22;4504;48.810;9.172;2022-07-01T01:19:45;18.20;99.90
8939;DHT22;4504;48.810;9.172;2022-07-01T01:22:15;18.00;99.90
8939;DHT22;4504;48.810;9.172;2022-07-01T01:24:43;18.00;99.90
8939;DHT22;4504;48.810;9.172;2022-07-01T01:27:11;18.00;99.90
8939;DHT22;4504;48.810;9.172;2022-07-01T01:29:39;17.90;99.90
8939;DHT22;4504;48.810;9.172;2022-07-01T01:32:07;17.90;99.90
8939;DHT22;4504;48.810;9.172;2022-07-01T01:34:34;17.80;99.90
8939;DHT22;4504;48.810;9.172;2022-07-01T01:37:03;17.80;99.90
8939;DHT22;4504;48.810;9.172;2022-07-01T01:39:32;17.80;99.90
8939;DHT22;4504;48.810;9.172;2022-07-01T01:41:59;17.80;99.90
8939;DHT22;4504;48.810;9.172;2022-07-01T01:44:26;17.70;99.90
8939;DHT22;4504;48.810;9.172;2022-07-01T01:46:53;17.60;99.90
8939;DHT22;4504;48.810;9.172;2022-07-01T01:49:20;17.60;99.90
8939;DHT22;4504;48.810;9.172;2022-07-01T01:51:47;17.60;99.90
8939;DHT22;4504;48.810;9.172;2022-07-01T01:54:14;17.60;99.90
8939;DHT22;4504;48.810;9.172;2022-07-01T01:56:42;17.50;99.90
8939;DHT22;4504;48.810;9.172;2022-07-01T01:59:09;17.50;99.90
8939;DHT22;4504;48.810;9.172;2022-07-01T02:01:38;17.50;99.90
8939;DHT22;4504;48.810;9.172;2022-07-01T02:04:05;17.50;99.90
8939;DHT22;4504;48.810;9.172;2022-07-01T02:06:32;17.60;99.90
8939;DHT22;4504;48.810;9.172;2022-07-01T02:08:59;17.50;99.90
8939;DHT22;4504;48.810;9.172;2022-07-01T02:11:26;17.50;99.90
8939;DHT22;4504;48.810;9.172;2022-07-01T02:13:55;17.40;99.90
8939;DHT22;4504;48.810;9.172;2022-07-01T02:16:21;17.40;99.90
8939;DHT22;4504;48.810;9.172;2022-07-01T02:18:48;17.40;99.90
8939;DHT22;4504;48.810;9.172;2022-07-01T02:21:15;17.40;99.90
8939;DHT22;4504;48.810;9.172;2022-07-01T02:23:42;17.40;99.90
8939;DHT22;4504;48.810;9.172;2022-07-01T02:26:09;17.40;99.90
8939;DHT22;4504;48.810;9.172;2022-07-01T02:28:36;17.40;99.90
8939;DHT22;4504;48.810;9.172;2022-07-01T02:31:04;17.20;99.90
8939;DHT22;4504;48.810;9.172;2022-07-01T02:33:31;17.10;99.90
8939;DHT22;4504;48.810;9.172;2022-07-01T02:35:58;17.10;99.90
8939;DHT22;4504;48.810;9.172;2022-07-01T02:38:25;17.00;99.90
8939;DHT22;4504;48.810;9.172;2022-07-01T02:40:52;17.00;99.90
8939;DHT22;4504;48.810;9.172;2022-07-01T02:43:19;17.00;99.90
8939;DHT22;4504;48.810;9.172;2022-07-01T02:45:46;17.00;99.90
8939;DHT22;4504;48.810;9.172;2022-07-01T02:48:15;17.10;99.90
8939;DHT22;4504;48.810;9.172;2022-07-01T02:50:42;17.10;99.90
8939;DHT22;4504;48.810;9.172;2022-07-01T02:53:09;17.10;99.90
8939;DHT22;4504;48.810;9.172;2022-07-01T02:55:36;17.20;99.90
8939;DHT22;4504;48.810;9.172;2022-07-01T02:58:03;17.10;99.90
8939;DHT22;4504;48.810;9.172;2022-07-01T03:00:30;17.10;99.90
8939;DHT22;4504;48.810;9.172;2022-07-01T03:02:57;17.10;99.90
8939;DHT22;4504;48.810;9.172;2022-07-01T03:05:25;17.10;99.90
8939;DHT22;4504;48.810;9.172;2022-07-01T03:07:52;17.00;99.90
8939;DHT22;4504;48.810;9.172;2022-07-01T03:10:19;17.10;99.90
8939;DHT22;4504;48.810;9.172;2022-07-01T03:12:46;17.00;99.90
8939;DHT22;4504;48.810;9.172;2022-07-01T03:15:14;17.10;99.90
8939;DHT22;4504;48.810;9.172;2022-07-01T03:17:42;17.10;99.90
8939;DHT22;4504;48.810;9.172;2022-07-01T03:20:11;17.10;99.90
8939;DHT22;4504;48.810;9.172;2022-07-01T03:22:41;17.20;99.90
8939;DHT22;4504;48.810;9.172;2022-07-01T03:25:08;17.10;99.90
8939;DHT22;4504;48.810;9.172;2022-07-01T03:27:36;17.10;99.90
8939;DHT22;4504;48.810;9.172;2022-07-01T03:30:05;17.10;99.90
8939;DHT22;4504;48.810;9.172;2022-07-01T03:32:32;17.10;99.90
8939;DHT22;4504;48.810;9.172;2022-07-01T03:34:59;17.20;99.90
8939;DHT22;4504;48.810;9.172;2022-07-01T03:37:48;17.10;99.90
8939;DHT22;4504;48.810;9.172;2022-07-01T03:40:14;17.30;99.90
8939;DHT22;4504;48.810;9.172;2022-07-01T03:42:41;17.10;99.90
8939;DHT22;4504;48.810;9.172;2022-07-01T03:45:09;17.10;99.90
8939;DHT22;4504;48.810;9.172;2022-07-01T03:47:36;17.20;99.90
8939;DHT22;4504;48.810;9.172;2022-07-01T03:50:04;17.20;99.90
8939;DHT22;4504;48.810;9.172;2022-07-01T03:52:31;17.10;99.90
8939;DHT22;4504;48.810;9.172;2022-07-01T03:55:00;17.10;99.90
8939;DHT22;4504;48.810;9.172;2022-07-01T03:57:26;17.20;99.90
8939;DHT22;4504;48.810;9.172;2022-07-01T03:59:53;17.20;99.90
8939;DHT22;4504;48.810;9.172;2022-07-01T04:02:20;17.20;99.90
8939;DHT22;4504;48.810;9.172;2022-07-01T04:04:47;17.20;99.90
8939;DHT22;4504;48.810;9.172;2022-07-01T04:07:14;17.20;99.90
8939;DHT22;4504;48.810;9.172;2022-07-01T04:09:41;17.30;99.90
8939;DHT22;4504;48.810;9.172;2022-07-01T04:12:11;17.20;99.90
8939;DHT22;4504;48.810;9.172;2022-07-01T04:14:38;17.30;99.90
8939;DHT22;4504;48.810;9.172;2022-07-01T04:17:05;17.20;99.90
8939;DHT22;4504;48.810;9.172;2022-07-01T04:19:33;17.10;99.90
8939;DHT22;4504;48.810;9.172;2022-07-01T04:22:01;17.10;99.90
8939;DHT22;4504;48.810;9.172;2022-07-01T04:24:47;17.10;99.90
8939;DHT22;4504;48.810;9.172;2022-07-01T04:27:15;17.00;99.90
8939;DHT22;4504;48.810;9.172;2022-07-01T04:29:42;17.00;99.90
8939;DHT22;4504;48.810;9.172;2022-07-01T04:32:09;17.00;99.90
8939;DHT22;4504;48.810;9.172;2022-07-01T04:34:35;16.90;99.90
8939;DHT22;4504;48.810;9.172;2022-07-01T04:37:03;16.90;99.90
8939;DHT22;4504;48.810;9.172;2022-07-01T04:39:30;16.90;99.90
8939;DHT22;4504;48.810;9.172;2022-07-01T04:41:57;16.90;99.90
8939;DHT22;4504;48.810;9.172;2022-07-01T04:44:29;16.90;99.90
8939;DHT22;4504;48.810;9.172;2022-07-01T04:46:56;16.90;99.90
8939;DHT22;4504;48.810;9.172;2022-07-01T04:49:24;16.90;99.90
8939;DHT22;4504;48.810;9.172;2022-07-01T04:51:51;17.00;99.90
8939;DHT22;4504;48.810;9.172;2022-07-01T04:54:18;17.00;99.90
8939;DHT22;4504;48.810;9.172;2022-07-01T04:56:45;17.00;99.90
8939;DHT22;4504;48.810;9.172;2022-07-01T04:59:13;17.00;99.90
8939;DHT22;4504;48.810;9.172;2022-07-01T05:01:42;16.90;99.90
8939;DHT22;4504;48.810;9.172;2022-07-01T05:04:10;16.90;99.90
8939;DHT22;4504;48.810;9.172;2022-07-01T05:06:37;16.90;99.90
8939;DHT22;4504;48.810;9.172;2022-07-01T05:09:04;16.90;99.90
8939;DHT22;4504;48.810;9.172;2022-07-01T05:11:31;16.90;99.90
8939;DHT22;4504;48.810;9.172;2022-07-01T05:13:58;16.80;99.90
8939;DHT22;4504;48.810;9.172;2022-07-01T05:16:25;16.80;99.90
8939;DHT22;4504;48.810;9.172;2022-07-01T05:18:54;16.80;99.90
8939;DHT22;4504;48.810;9.172;2022-07-01T05:21:38;16.70;99.90
8939;DHT22;4504;48.810;9.172;2022-07-01T05:24:24;16.70;99.90
8939;DHT22;4504;48.810;9.172;2022-07-01T05:26:53;16.70;99.90
8939;DHT22;4504;48.810;9.172;2022-07-01T05:29:20;16.70;99.90
8939;DHT22;4504;48.810;9.172;2022-07-01T05:31:47;16.70;99.90
8939;DHT22;4504;48.810;9.172;2022-07-01T05:34:16;16.70;99.90
8939;DHT22;4504;48.810;9.172;2022-07-01T05:36:43;16.70;99.90
8939;DHT22;4504;48.810;9.172;2022-07-01T05:39:10;16.60;99.90
8939;DHT22;4504;48.810;9.172;2022-07-01T05:41:37;16.60;99.90
8939;DHT22;4504;48.810;9.172;2022-07-01T05:44:04;16.60;99.90
8939;DHT22;4504;48.810;9.172;2022-07-01T05:46:31;16.60;99.90
8939;DHT22;4504;48.810;9.172;2022-07-01T05:48:58;16.60;99.90
8939;DHT22;4504;48.810;9.172;2022-07-01T05:51:30;16.60;99.90
8939;DHT22;4504;48.810;9.172;2022-07-01T05:54:00;16.60;99.90
8939;DHT22;4504;48.810;9.172;2022-07-01T05:56:27;16.60;99.90
8939;DHT22;4504;48.810;9.172;2022-07-01T05:58:56;16.60;99.90
8939;DHT22;4504;48.810;9.172;2022-07-01T06:01:22;16.60;99.90
8939;DHT22;4504;48.810;9.172;2022-07-01T06:03:49;16.60;99.90
8939;DHT22;4504;48.810;9.172;2022-07-01T06:06:16;16.50;99.90
8939;DHT22;4504;48.810;9.172;2022-07-01T06:08:46;16.60;99.90
8939;DHT22;4504;48.810;9.172;2022-07-01T06:11:13;16.60;99.90
8939;DHT22;4504;48.810;9.172;2022-07-01T06:13:40;16.60;99.90
8939;DHT22;4504;48.810;9.172;2022-07-01T06:16:07;16.60;99.90
8939;DHT22;4504;48.810;9.172;2022-07-01T06:18:35;16.60;99.90
8939;DHT22;4504;48.810;9.172;2022-07-01T06:21:01;16.60;99.90
8939;DHT22;4504;48.810;9.172;2022-07-01T06:23:29;16.60;99.90
8939;DHT22;4504;48.810;9.172;2022-07-01T06:25:57;16.60;99.90
8939;DHT22;4504;48.810;9.172;2022-07-01T06:28:24;16.60;99.90
8939;DHT22;4504;48.810;9.172;2022-07-01T06:30:56;16.50;99.90
8939;DHT22;4504;48.810;9.172;2022-07-01T06:33:22;16.50;99.90
8939;DHT22;4504;48.810;9.172;2022-07-01T06:35:49;16.50;99.90
8939;DHT22;4504;48.810;9.172;2022-07-01T06:38:17;16.50;99.90
8939;DHT22;4504;48.810;9.172;2022-07-01T06:40:44;16.40;99.90
8939;DHT22;4504;48.810;9.172;2022-07-01T06:43:33;16.40;99.90
8939;DHT22;4504;48.810;9.172;2022-07-01T06:46:00;16.40;99.90
8939;DHT22;4504;48.810;9.172;2022-07-01T06:48:27;16.40;99.90
8939;DHT22;4504;48.810;9.172;2022-07-01T06:50:54;16.50;99.90
8939;DHT22;4504;48.810;9.172;2022-07-01T06:53:21;16.50;99.90
8939;DHT22;4504;48.810;9.172;2022-07-01T06:55:48;16.50;99.90
8939;DHT22;4504;48.810;9.172;2022-07-01T06:58:15;16.60;99.90
8939;DHT22;4504;48.810;9.172;2022-07-01T07:00:44;16.70;99.90
8939;DHT22;4504;48.810;9.172;2022-07-01T07:03:11;16.70;99.90
8939;DHT22;4504;48.810;9.172;2022-07-01T07:05:38;16.70;99.90
8939;DHT22;4504;48.810;9.172;2022-07-01T07:08:04;16.60;99.90
8939;DHT22;4504;48.810;9.172;2022-07-01T07:10:31;16.60;99.90
8939;DHT22;4504;48.810;9.172;2022-07-01T07:12:58;16.70;99.90
8939;DHT22;4504;48.810;9.172;2022-07-01T07:15:25;16.70;99.90
8939;DHT22;4504;48.810;9.172;2022-07-01T07:17:54;16.70;99.90
8939;DHT22;4504;48.810;9.172;2022-07-01T07:20:23;16.70;99.90
8939;DHT22;4504;48.810;9.172;2022-07-01T07:22:50;16.80;99.90
8939;DHT22;4504;48.810;9.172;2022-07-01T07:25:17;16.80;99.90
8939;DHT22;4504;48.810;9.172;2022-07-01T07:27:44;16.70;99.90
8939;DHT22;4504;48.810;9.172;2022-07-01T07:30:12;16.70;99.90
8939;DHT22;4504;48.810;9.172;2022-07-01T07:32:39;16.70;99.90
8939;DHT22;4504;48.810;9.172;2022-07-01T07:35:08;16.70;99.90
8939;DHT22;4504;48.810;9.172;2022-07-01T07:37:35;16.80;99.90
8939;DHT22;4504;48.810;9.172;2022-07-01T07:40:04;16.80;99.90
8939;DHT22;4504;48.810;9.172;2022-07-01T07:42:33;16.80;99.90
8939;DHT22;4504;48.810;9.172;2022-07-01T07:45:00;16.80;99.90
8939;DHT22;4504;48.810;9.172;2022-07-01T07:47:27;16.80;99.90
8939;DHT22;4504;48.810;9.172;2022-07-01T07:49:54;16.80;99.90
8939;DHT22;4504;48.810;9.172;2022-07-01T07:52:22;16.80;99.90
8939;DHT22;4504;48.810;9.172;2022-07-01T07:54:50;16.80;99.90
8939;DHT22;4504;48.810;9.172;2022-07-01T07:57:17;16.80;99.90
8939;DHT22;4504;48.810;9.172;2022-07-01T07:59:44;16.80;99.90
8939;DHT22;4504;48.810;9.172;2022-07-01T08:02:11;16.90;99.90
8939;DHT22;4504;48.810;9.172;2022-07-01T08:04:38;16.90;99.90
8939;DHT22;4504;48.810;9.172;2022-07-01T08:07:05;16.90;99.90
8939;DHT22;4504;48.810;9.172;2022-07-01T08:09:34;16.90;99.90
8939;DHT22;4504;48.810;9.172;2022-07-01T08:12:01;16.90;99.90
8939;DHT22;4504;48.810;9.172;2022-07-01T08:14:28;16.90;99.90
8939;DHT22;4504;48.810;9.172;2022-07-01T08:16:55;16.90;99.90
8939;DHT22;4504;48.810;9.172;2022-07-01T08:19:22;16.90;99.90
8939;DHT22;4504;48.810;9.172;2022-07-01T08:21:49;16.90;99.90
8939;DHT22;4504;48.810;9.172;2022-07-01T08:24:16;16.90;99.90
8939;DHT22;4504;48.810;9.172;2022-07-01T08:26:47;16.90;99.90
8939;DHT22;4504;48.810;9.172;2022-07-01T08:29:14;16.90;99.90
8939;DHT22;4504;48.810;9.172;2022-07-01T08:31:41;17.00;99.90
8939;DHT22;4504;48.810;9.172;2022-07-01T08:34:09;17.00;99.90
8939;DHT22;4504;48.810;9.172;2022-07-01T08:36:36;17.00;99.90
8939;DHT22;4504;48.810;9.172;2022-07-01T08:39:03;17.10;99.90
8939;DHT22;4504;48.810;9.172;2022-07-01T08:41:30;17.10;99.90
8939;DHT22;4504;48.810;9.172;2022-07-01T08:43:59;17.10;99.90
8939;DHT22;4504;48.810;9.172;2022-07-01T08:46:27;17.10;99.90
8939;DHT22;4504;48.810;9.172;2022-07-01T08:48:54;17.10;99.90
8939;DHT22;4504;48.810;9.172;2022-07-01T08:51:21;17.10;99.90
8939;DHT22;4504;48.810;9.172;2022-07-01T08:53:48;17.10;99.90
8939;DHT22;4504;48.810;9.172;2022-07-01T08:56:15;17.10;99.90
8939;DHT22;4504;48.810;9.172;2022-07-01T08:59:01;17.10;99.90
8939;DHT22;4504;48.810;9.172;2022-07-01T09:01:28;17.10;99.90
8939;DHT22;4504;48.810;9.172;2022-07-01T09:03:56;17.10;99.90
8939;DHT22;4504;48.810;9.172;2022-07-01T09:06:27;17.10;99.90
8939;DHT22;4504;48.810;9.172;2022-07-01T09:08:54;17.20;99.90
8939;DHT22;4504;48.810;9.172;2022-07-01T09:11:22;17.10;99.90
8939;DHT22;4504;48.810;9.172;2022-07-01T09:16:44;17.10;99.90
8939;DHT22;4504;48.810;9.172;2022-07-01T09:19:12;17.00;99.90
8939;DHT22;4504;48.810;9.172;2022-07-01T09:21:40;16.90;99.90
8939;DHT22;4504;48.810;9.172;2022-07-01T09:24:25;16.90;99.90
8939;DHT22;4504;48.810;9.172;2022-07-01T09:26:55;16.90;99.90
8939;DHT22;4504;48.810;9.172;2022-07-01T09:29:26;16.90;99.90
8939;DHT22;4504;48.810;9.172;2022-07-01T09:31:55;16.90;99.90
8939;DHT22;4504;48.810;9.172;2022-07-01T09:34:22;16.90;99.90
8939;DHT22;4504;48.810;9.172;2022-07-01T09:36:53;16.80;99.90
8939;DHT22;4504;48.810;9.172;2022-07-01T09:39:21;16.80;99.90
8939;DHT22;4504;48.810;9.172;2022-07-01T09:41:48;16.80;99.90
8939;DHT22;4504;48.810;9.172;2022-07-01T09:44:15;16.70;99.90
8939;DHT22;4504;48.810;9.172;2022-07-01T09:46:52;16.70;99.90
8939;DHT22;4504;48.810;9.172;2022-07-01T09:49:21;16.70;99.90
8939;DHT22;4504;48.810;9.172;2022-07-01T09:51:49;16.60;99.90
8939;DHT22;4504;48.810;9.172;2022-07-01T09:54:17;16.60;99.90
8939;DHT22;4504;48.810;9.172;2022-07-01T09:56:44;16.60;99.90
8939;DHT22;4504;48.810;9.172;2022-07-01T09:59:11;16.60;99.90
8939;DHT22;4504;48.810;9.172;2022-07-01T10:01:39;16.60;99.90
8939;DHT22;4504;48.810;9.172;2022-07-01T10:04:07;16.60;99.90
8939;DHT22;4504;48.810;9.172;2022-07-01T10:06:52;16.70;99.90
8939;DHT22;4504;48.810;9.172;2022-07-01T10:09:43;16.70;99.90
8939;DHT22;4504;48.810;9.172;2022-07-01T10:12:29;16.80;99.90
8939;DHT22;4504;48.810;9.172;2022-07-01T10:14:58;16.90;99.90
8939;DHT22;4504;48.810;9.172;2022-07-01T10:17:27;16.90;99.90
8939;DHT22;4504;48.810;9.172;2022-07-01T10:19:55;17.00;99.90
8939;DHT22;4504;48.810;9.172;2022-07-01T10:22:29;17.00;99.90
8939;DHT22;4504;48.810;9.172;2022-07-01T10:24:58;17.00;99.90
8939;DHT22;4504;48.810;9.172;2022-07-01T10:27:43;17.10;99.90
8939;DHT22;4504;48.810;9.172;2022-07-01T10:30:14;17.10;99.90
8939;DHT22;4504;48.810;9.172;2022-07-01T10:32:46;17.20;99.90
8939;DHT22;4504;48.810;9.172;2022-07-01T10:35:14;17.20;99.90
8939;DHT22;4504;48.810;9.172;2022-07-01T10:37:57;17.30;99.90
8939;DHT22;4504;48.810;9.172;2022-07-01T10:40:40;17.40;99.90
8939;DHT22;4504;48.810;9.172;2022-07-01T10:43:10;17.50;99.90
8939;DHT22;4504;48.810;9.172;2022-07-01T10:45:41;17.50;99.90
8939;DHT22;4504;48.810;9.172;2022-07-01T10:48:20;17.60;99.90
8939;DHT22;4504;48.810;9.172;2022-07-01T10:50:47;17.70;99.90
8939;DHT22;4504;48.810;9.172;2022-07-01T10:53:16;17.80;99.90
8939;DHT22;4504;48.810;9.172;2022-07-01T10:55:46;17.80;99.90
8939;DHT22;4504;48.810;9.172;2022-07-01T10:58:13;17.80;99.90
8939;DHT22;4504;48.810;9.172;2022-07-01T11:00:42;17.80;99.90
8939;DHT22;4504;48.810;9.172;2022-07-01T11:03:11;17.80;99.90
8939;DHT22;4504;48.810;9.172;2022-07-01T11:05:39;17.80;99.90
8939;DHT22;4504;48.810;9.172;2022-07-01T11:08:07;17.90;99.90
8939;DHT22;4504;48.810;9.172;2022-07-01T11:10:36;18.00;99.90
8939;DHT22;4504;48.810;9.172;2022-07-01T11:13:03;18.00;99.90
8939;DHT22;4504;48.810;9.172;2022-07-01T11:15:30;18.20;99.90
8939;DHT22;4504;48.810;9.172;2022-07-01T11:17:58;18.20;99.90
8939;DHT22;4504;48.810;9.172;2022-07-01T11:20:31;18.30;99.90
8939;DHT22;4504;48.810;9.172;2022-07-01T11:22:59;18.20;99.90
8939;DHT22;4504;48.810;9.172;2022-07-01T11:25:26;18.30;99.90
8939;DHT22;4504;48.810;9.172;2022-07-01T11:27:55;18.10;99.90
8939;DHT22;4504;48.810;9.172;2022-07-01T11:30:23;18.20;99.90
8939;DHT22;4504;48.810;9.172;2022-07-01T11:32:51;18.10;99.90
8939;DHT22;4504;48.810;9.172;2022-07-01T11:35:20;18.20;99.90
8939;DHT22;4504;48.810;9.172;2022-07-01T11:38:10;18.30;99.90
8939;DHT22;4504;48.810;9.172;2022-07-01T11:40:55;18.30;99.90
8939;DHT22;4504;48.810;9.172;2022-07-01T11:43:26;18.50;99.90
8939;DHT22;4504;48.810;9.172;2022-07-01T11:45:54;18.50;99.90
8939;DHT22;4504;48.810;9.172;2022-07-01T11:48:29;18.60;99.90
8939;DHT22;4504;48.810;9.172;2022-07-01T11:50:57;18.60;99.90
8939;DHT22;4504;48.810;9.172;2022-07-01T11:53:25;18.70;99.90
8939;DHT22;4504;48.810;9.172;2022-07-01T11:55:51;18.80;99.90
8939;DHT22;4504;48.810;9.172;2022-07-01T11:58:18;18.90;99.90
8939;DHT22;4504;48.810;9.172;2022-07-01T12:00:47;18.90;99.90
8939;DHT22;4504;48.810;9.172;2022-07-01T12:03:28;19.10;99.90
8939;DHT22;4504;48.810;9.172;2022-07-01T12:05:56;19.30;99.90
8939;DHT22;4504;48.810;9.172;2022-07-01T12:08:24;19.50;99.90
8939;DHT22;4504;48.810;9.172;2022-07-01T12:10:51;19.60;99.90
8939;DHT22;4504;48.810;9.172;2022-07-01T12:13:26;19.80;99.90
8939;DHT22;4504;48.810;9.172;2022-07-01T12:16:05;19.90;99.90
8939;DHT22;4504;48.810;9.172;2022-07-01T12:18:33;19.90;99.90
8939;DHT22;4504;48.810;9.172;2022-07-01T12:21:00;20.00;99.90
8939;DHT22;4504;48.810;9.172;2022-07-01T12:23:27;20.20;99.90
8939;DHT22;4504;48.810;9.172;2022-07-01T12:25:54;20.20;99.90
8939;DHT22;4504;48.810;9.172;2022-07-01T12:28:29;20.10;99.90
8939;DHT22;4504;48.810;9.172;2022-07-01T12:31:03;20.00;99.90
8939;DHT22;4504;48.810;9.172;2022-07-01T12:33:33;20.00;99.90
8939;DHT22;4504;48.810;9.172;2022-07-01T12:36:01;20.30;99.90
8939;DHT22;4504;48.810;9.172;2022-07-01T12:38:28;20.40;99.90
8939;DHT22;4504;48.810;9.172;2022-07-01T12:40:56;20.30;99.90
8939;DHT22;4504;48.810;9.172;2022-07-01T12:43:27;20.10;99.90
8939;DHT22;4504;48.810;9.172;2022-07-01T12:45:56;20.10;99.90
8939;DHT22;4504;48.810;9.172;2022-07-01T12:48:25;20.00;99.90
8939;DHT22;4504;48.810;9.172;2022-07-01T12:50:53;20.00;99.90
8939;DHT22;4504;48.810;9.172;2022-07-01T12:53:22;20.00;99.90
8939;DHT22;4504;48.810;9.172;2022-07-01T12:55:51;20.00;99.90
8939;DHT22;4504;48.810;9.172;2022-07-01T12:58:20;20.00;99.90
8939;DHT22;4504;48.810;9.172;2022-07-01T13:00:49;19.90;99.90
8939;DHT22;4504;48.810;9.172;2022-07-01T13:03:19;20.00;99.90
8939;DHT22;4504;48.810;9.172;2022-07-01T13:05:49;20.00;99.90
8939;DHT22;4504;48.810;9.172;2022-07-01T13:08:17;19.90;99.90
8939;DHT22;4504;48.810;9.172;2022-07-01T13:10:44;19.90;99.90
8939;DHT22;4504;48.810;9.172;2022-07-01T13:13:13;19.90;99.90
8939;DHT22;4504;48.810;9.172;2022-07-01T13:15:40;19.90;99.90
8939;DHT22;4504;48.810;9.172;2022-07-01T13:18:08;19.90;99.90
8939;DHT22;4504;48.810;9.172;2022-07-01T13:20:35;20.10;99.90
8939;DHT22;4504;48.810;9.172;2022-07-01T13:23:05;20.10;99.90
8939;DHT22;4504;48.810;9.172;2022-07-01T13:25:32;20.10;99.90
8939;DHT22;4504;48.810;9.172;2022-07-01T13:27:59;20.10;99.90
8939;DHT22;4504;48.810;9.172;2022-07-01T13:30:26;20.10;99.90
8939;DHT22;4504;48.810;9.172;2022-07-01T13:32:53;20.10;99.90
8939;DHT22;4504;48.810;9.172;2022-07-01T13:35:21;20.10;99.90
8939;DHT22;4504;48.810;9.172;2022-07-01T13:37:49;20.10;99.90
8939;DHT22;4504;48.810;9.172;2022-07-01T13:40:19;20.10;99.90
8939;DHT22;4504;48.810;9.172;2022-07-01T13:42:47;20.20;99.90
8939;DHT22;4504;48.810;9.172;2022-07-01T13:45:14;20.20;99.90
8939;DHT22;4504;48.810;9.172;2022-07-01T13:47:41;20.20;99.90
8939;DHT22;4504;48.810;9.172;2022-07-01T13:50:09;20.30;99.90
8939;DHT22;4504;48.810;9.172;2022-07-01T13:52:36;20.40;99.90
8939;DHT22;4504;48.810;9.172;2022-07-01T13:55:04;20.50;99.90
8939;DHT22;4504;48.810;9.172;2022-07-01T13:57:33;20.50;99.90
8939;DHT22;4504;48.810;9.172;2022-07-01T14:00:03;20.60;99.90
8939;DHT22;4504;48.810;9.172;2022-07-01T14:02:34;20.70;99.90
8939;DHT22;4504;48.810;9.172;2022-07-01T14:05:02;20.80;99.90
8939;DHT22;4504;48.810;9.172;2022-07-01T14:07:29;20.90;99.90
8939;DHT22;4504;48.810;9.172;2022-07-01T14:09:56;21.00;99.90
8939;DHT22;4504;48.810;9.172;2022-07-01T14:12:23;21.00;99.90
8939;DHT22;4504;48.810;9.172;2022-07-01T14:14:51;21.00;99.90
8939;DHT22;4504;48.810;9.172;2022-07-01T14:17:19;21.10;99.90
8939;DHT22;4504;48.810;9.172;2022-07-01T14:19:46;21.20;99.90
8939;DHT22;4504;48.810;9.172;2022-07-01T14:22:13;21.30;99.90
8939;DHT22;4504;48.810;9.172;2022-07-01T14:24:40;21.50;99.90
8939;DHT22;4504;48.810;9.172;2022-07-01T14:27:07;21.60;99.90
8939;DHT22;4504;48.810;9.172;2022-07-01T14:29:34;21.70;99.50
8939;DHT22;4504;48.810;9.172;2022-07-01T14:32:03;21.90;99.90
8939;DHT22;4504;48.810;9.172;2022-07-01T14:34:30;22.00;99.60
8939;DHT22;4504;48.810;9.172;2022-07-01T14:36:57;22.10;98.10
8939;DHT22;4504;48.810;9.172;2022-07-01T14:39:24;22.10;98.30
8939;DHT22;4504;48.810;9.172;2022-07-01T14:41:51;22.10;97.60
8939;DHT22;4504;48.810;9.172;2022-07-01T14:44:18;22.10;97.50
8939;DHT22;4504;48.810;9.172;2022-07-01T14:46:45;22.10;98.00
8939;DHT22;4504;48.810;9.172;2022-07-01T14:49:14;22.20;98.10
8939;DHT22;4504;48.810;9.172;2022-07-01T14:51:43;22.30;98.20
8939;DHT22;4504;48.810;9.172;2022-07-01T14:54:10;22.40;98.20
8939;DHT22;4504;48.810;9.172;2022-07-01T14:56:37;22.50;96.80
8939;DHT22;4504;48.810;9.172;2022-07-01T14:59:04;22.50;95.70
8939;DHT22;4504;48.810;9.172;2022-07-01T15:01:31;22.40;96.10
8939;DHT22;4504;48.810;9.172;2022-07-01T15:03:58;22.40;96.70
8939;DHT22;4504;48.810;9.172;2022-07-01T15:06:27;22.30;96.60
8939;DHT22;4504;48.810;9.172;2022-07-01T15:08:54;22.20;96.70
8939;DHT22;4504;48.810;9.172;2022-07-01T15:11:21;22.20;97.20
8939;DHT22;4504;48.810;9.172;2022-07-01T15:13:48;22.20;96.90
8939;DHT22;4504;48.810;9.172;2022-07-01T15:16:15;22.10;97.30
8939;DHT22;4504;48.810;9.172;2022-07-01T15:18:42;22.20;97.10
8939;DHT22;4504;48.810;9.172;2022-07-01T15:21:09;22.20;97.50
8939;DHT22;4504;48.810;9.172;2022-07-01T15:23:38;22.40;97.50
8939;DHT22;4504;48.810;9.172;2022-07-01T15:26:04;22.50;97.00
8939;DHT22;4504;48.810;9.172;2022-07-01T15:28:31;22.60;96.00
8939;DHT22;4504;48.810;9.172;2022-07-01T15:30:58;22.80;95.20
8939;DHT22;4504;48.810;9.172;2022-07-01T15:33:25;22.90;96.20
8939;DHT22;4504;48.810;9.172;2022-07-01T15:35:53;22.90;95.00
8939;DHT22;4504;48.810;9.172;2022-07-01T15:38:20;22.80;94.60
8939;DHT22;4504;48.810;9.172;2022-07-01T15:40:49;22.80;95.90
8939;DHT22;4504;48.810;9.172;2022-07-01T15:43:18;22.80;95.30
8939;DHT22;4504;48.810;9.172;2022-07-01T15:45:45;22.70;95.60
8939;DHT22;4504;48.810;9.172;2022-07-01T15:48:12;22.60;94.60
8939;DHT22;4504;48.810;9.172;2022-07-01T15:50:41;22.50;95.50
8939;DHT22;4504;48.810;9.172;2022-07-01T15:53:08;22.50;94.80
8939;DHT22;4504;48.810;9.172;2022-07-01T15:55:37;22.60;95.00
8939;DHT22;4504;48.810;9.172;2022-07-01T15:58:07;22.60;94.80
8939;DHT22;4504;48.810;9.172;2022-07-01T16:00:35;22.50;94.00
8939;DHT22;4504;48.810;9.172;2022-07-01T16:03:02;22.40;93.80
8939;DHT22;4504;48.810;9.172;2022-07-01T16:05:30;22.50;94.70
8939;DHT22;4504;48.810;9.172;2022-07-01T16:08:00;22.50;95.60
8939;DHT22;4504;48.810;9.172;2022-07-01T16:10:42;22.40;95.10
8939;DHT22;4504;48.810;9.172;2022-07-01T16:13:11;22.40;95.20